Time;durP1;ratioP1;P1;durP2;ratioP2;P2;SDS_P1;SDS_P2;PMS_P1;PMS_P2;Temp;Humidity;BMP_temperature;BMP_pressure;BME280_temperature;BME280_humidity;BME280_pressure;Samples;Min_cycle;Max_cycle;Signal;HPM_P1;HPM_P2
2023/05/13 00:01:12;;;;;;;6.77;6.10;;;15.80;59.10;;;;;;5038197;28;20508;-84
2023/05/13 00:03:39;;;;;;;7.00;6.30;;;15.80;58.60;;;;;;5032408;28;20464;-83
2023/05/13 00:06:06;;;;;;;8.57;5.90;;;15.60;59.20;;;;;;5023204;28;21462;-83
2023/05/13 00:08:35;;;;;;;9.10;5.70;;;15.40;60.70;;;;;;5031672;28;21430;-83
2023/05/13 00:11:02;;;;;;;7.43;5.90;;;15.30;60.00;;;;;;5034224;28;20492;-83
2023/05/13 00:13:30;;;;;;;8.30;6.30;;;15.20;60.10;;;;;;5038111;28;20461;-83
2023/05/13 00:15:56;;;;;;;6.93;6.23;;;15.20;60.20;;;;;;5031600;28;20442;-84
2023/05/13 00:18:23;;;;;;;10.30;7.53;;;15.10;60.10;;;;;;5017318;28;20445;-83
2023/05/13 00:20:50;;;;;;;12.50;6.87;;;15.00;60.90;;;;;;5026816;28;20457;-83
2023/05/13 00:23:17;;;;;;;12.00;7.20;;;15.20;61.40;;;;;;5048214;28;20440;-82
2023/05/13 00:25:46;;;;;;;8.67;7.30;;;15.30;61.30;;;;;;4999986;28;20450;-83
2023/05/13 00:28:13;;;;;;;11.53;7.47;;;15.40;60.80;;;;;;5020444;28;20456;-84
2023/05/13 00:30:42;;;;;;;8.60;6.83;;;15.50;60.60;;;;;;5033291;28;20497;-84
2023/05/13 00:33:10;;;;;;;12.17;7.03;;;15.50;61.00;;;;;;5026635;28;20862;-83
2023/05/13 00:35:37;;;;;;;15.93;7.13;;;15.50;60.60;;;;;;5018602;28;20455;-83
2023/05/13 00:38:04;;;;;;;7.00;6.27;;;15.60;60.10;;;;;;5031678;28;20448;-83
2023/05/13 00:40:31;;;;;;;7.53;6.23;;;15.60;59.80;;;;;;5024666;28;21129;-83
2023/05/13 00:42:59;;;;;;;10.40;6.90;;;15.60;59.60;;;;;;5024641;28;20524;-84
2023/05/13 00:45:26;;;;;;;7.47;6.57;;;15.60;59.50;;;;;;5046221;28;20490;-84
2023/05/13 00:47:54;;;;;;;8.40;6.53;;;15.60;59.30;;;;;;5041672;28;20460;-83
2023/05/13 00:50:21;;;;;;;15.73;6.60;;;15.60;58.80;;;;;;5016367;28;20466;-83
2023/05/13 00:52:50;;;;;;;21.27;7.73;;;15.60;58.90;;;;;;5031271;28;20469;-83
2023/05/13 00:55:18;;;;;;;25.00;7.20;;;15.60;59.20;;;;;;5039184;28;20452;-83
2023/05/13 00:57:45;;;;;;;14.13;6.63;;;15.50;59.10;;;;;;5025061;28;20515;-83
2023/05/13 01:00:14;;;;;;;8.00;6.23;;;15.50;59.20;;;;;;5047246;28;20466;-84
2023/05/13 01:02:48;;;;;;;9.50;6.70;;;15.40;58.90;;;;;;5019988;28;20453;-82
2023/05/13 01:05:26;;;;;;;7.70;6.27;;;15.40;58.80;;;;;;5039621;28;20439;-83
2023/05/13 01:08:03;;;;;;;7.13;5.87;;;15.40;58.50;;;;;;5030874;28;21139;-83
2023/05/13 01:10:38;;;;;;;7.13;6.23;;;15.30;58.40;;;;;;5008884;28;20475;-83
2023/05/13 01:13:09;;;;;;;6.93;5.97;;;15.30;58.50;;;;;;5013014;28;20611;-84
2023/05/13 01:15:42;;;;;;;8.40;5.87;;;15.20;58.50;;;;;;5032587;28;20461;-82
2023/05/13 01:18:12;;;;;;;10.23;6.00;;;15.20;58.40;;;;;;5040992;28;20444;-83
2023/05/13 01:20:42;;;;;;;6.53;5.83;;;15.20;58.80;;;;;;5019043;28;20467;-84
2023/05/13 01:23:11;;;;;;;6.83;5.97;;;15.20;58.70;;;;;;5030543;28;20460;-83
2023/05/13 01:25:38;;;;;;;7.60;5.60;;;15.30;58.60;;;;;;5023799;28;20459;-83
2023/05/13 01:28:06;;;;;;;8.00;6.57;;;15.20;58.40;;;;;;5032506;28;20929;-84
2023/05/13 01:30:34;;;;;;;7.20;5.80;;;15.20;58.10;;;;;;5013853;28;20478;-83
2023/05/13 01:33:02;;;;;;;7.80;6.20;;;15.20;57.90;;;;;;5034421;28;20477;-84
2023/05/13 01:35:32;;;;;;;11.37;6.73;;;15.30;58.30;;;;;;5039456;28;20453;-84
2023/05/13 01:38:00;;;;;;;10.57;6.63;;;15.30;58.30;;;;;;5035601;28;20444;-83
2023/05/13 01:40:29;;;;;;;6.47;5.87;;;15.30;58.20;;;;;;5030219;28;20527;-82
2023/05/13 01:42:56;;;;;;;9.30;6.13;;;15.20;58.00;;;;;;5025839;28;20449;-83
2023/05/13 01:45:23;;;;;;;12.00;7.20;;;15.20;58.20;;;;;;5011848;28;20544;-84
2023/05/13 01:47:50;;;;;;;23.73;8.33;;;15.20;58.30;;;;;;5000129;28;20523;-83
2023/05/13 01:50:17;;;;;;;11.40;7.47;;;15.10;58.50;;;;;;5020282;28;20452;-83
2023/05/13 01:52:44;;;;;;;10.13;7.47;;;14.70;59.60;;;;;;5031033;28;21454;-83
2023/05/13 01:55:12;;;;;;;12.10;7.47;;;14.70;59.60;;;;;;5008087;28;20867;-85
2023/05/13 01:57:40;;;;;;;11.53;8.30;;;14.50;60.50;;;;;;5021747;28;20464;-82
2023/05/13 02:00:09;;;;;;;16.90;7.57;;;14.40;60.90;;;;;;5004272;28;20484;-83
2023/05/13 02:02:41;;;;;;;12.07;7.57;;;14.30;61.20;;;;;;5025840;28;20818;-82
2023/05/13 02:05:09;;;;;;;10.67;7.57;;;14.40;59.90;;;;;;5013725;28;20453;-83
2023/05/13 02:07:36;;;;;;;11.10;6.87;;;14.40;59.50;;;;;;5007000;28;20450;-83
2023/05/13 02:10:03;;;;;;;14.73;7.07;;;14.50;60.10;;;;;;5018698;28;20484;-84
2023/05/13 02:12:32;;;;;;;10.27;7.27;;;14.40;60.60;;;;;;5039759;28;20508;-83
2023/05/13 02:15:01;;;;;;;13.87;8.00;;;14.50;60.60;;;;;;5034290;28;20463;-83
2023/05/13 02:17:30;;;;;;;9.00;7.87;;;14.50;61.10;;;;;;5001069;28;20457;-83
2023/05/13 02:19:58;;;;;;;8.00;7.20;;;14.60;60.80;;;;;;5044094;28;21040;-82
2023/05/13 02:22:25;;;;;;;11.00;7.10;;;14.70;60.00;;;;;;5009554;28;20970;-83
2023/05/13 02:24:52;;;;;;;7.70;6.63;;;14.70;59.60;;;;;;5018576;28;20503;-81
2023/05/13 02:27:19;;;;;;;12.40;7.10;;;14.70;59.10;;;;;;5022521;28;20457;-82
2023/05/13 02:29:46;;;;;;;9.70;6.70;;;14.80;58.90;;;;;;5037441;28;21204;-84
2023/05/13 02:32:15;;;;;;;10.50;7.40;;;14.80;58.80;;;;;;5032596;28;21083;-84
2023/05/13 02:34:42;;;;;;;7.07;6.40;;;14.80;58.70;;;;;;5006220;28;20806;-83
2023/05/13 02:37:09;;;;;;;6.97;6.27;;;14.80;58.70;;;;;;5043065;28;20449;-83
2023/05/13 02:39:43;;;;;;;6.80;6.13;;;14.80;58.70;;;;;;5018912;28;20560;-82
2023/05/13 02:42:10;;;;;;;9.10;6.30;;;14.80;58.60;;;;;;5019955;28;20568;-84
2023/05/13 02:44:37;;;;;;;39.33;8.03;;;14.80;58.50;;;;;;5044575;28;20452;-83
2023/05/13 02:47:05;;;;;;;34.70;7.30;;;14.70;58.70;;;;;;5020291;28;20532;-83
2023/05/13 02:49:33;;;;;;;39.30;6.90;;;14.70;59.20;;;;;;5025820;28;20480;-82
2023/05/13 02:52:00;;;;;;;15.03;7.30;;;14.70;59.40;;;;;;5016623;28;20477;-82
2023/05/13 02:54:33;;;;;;;8.80;6.40;;;14.70;59.40;;;;;;5025195;28;20461;-83
2023/05/13 02:57:00;;;;;;;9.27;6.90;;;14.70;59.60;;;;;;5037477;28;20596;-83
2023/05/13 02:59:27;;;;;;;16.53;6.23;;;14.70;59.60;;;;;;5015844;28;20480;-82
2023/05/13 03:01:54;;;;;;;12.50;6.30;;;14.60;59.10;;;;;;5024200;28;20442;-83
2023/05/13 03:04:20;;;;;;;18.87;6.90;;;14.70;58.90;;;;;;5021889;28;20440;-83
2023/05/13 03:06:51;;;;;;;8.63;6.53;;;14.60;58.70;;;;;;5018785;28;20448;-83
2023/05/13 03:09:18;;;;;;;43.80;8.37;;;14.60;59.00;;;;;;5025394;28;20484;-83
2023/05/13 03:11:45;;;;;;;34.77;7.70;;;14.60;59.20;;;;;;5019825;28;20476;-83
2023/05/13 03:14:12;;;;;;;165.30;14.77;;;14.60;59.30;;;;;;5033069;28;20461;-81
2023/05/13 03:16:39;;;;;;;54.17;7.63;;;14.60;59.50;;;;;;5035704;28;20440;-83
2023/05/13 03:19:06;;;;;;;36.37;7.73;;;14.60;59.50;;;;;;5017574;28;20504;-82
2023/05/13 03:21:33;;;;;;;79.53;10.23;;;14.60;59.70;;;;;;5014649;28;20436;-84
2023/05/13 03:24:01;;;;;;;87.90;10.97;;;14.40;60.00;;;;;;5003407;28;20445;-83
2023/05/13 03:26:29;;;;;;;18.30;6.20;;;14.40;60.50;;;;;;5022862;28;22860;-84
2023/05/13 03:28:56;;;;;;;29.60;7.80;;;14.40;60.50;;;;;;5010444;28;21062;-83
2023/05/13 03:31:23;;;;;;;9.23;6.90;;;13.90;60.90;;;;;;5024497;28;21163;-82
2023/05/13 03:33:50;;;;;;;8.73;7.23;;;13.60;62.40;;;;;;5006923;28;21120;-83
2023/05/13 03:36:17;;;;;;;7.60;6.27;;;13.80;62.10;;;;;;5026696;28;20440;-83
2023/05/13 03:38:44;;;;;;;12.93;6.70;;;14.00;60.90;;;;;;5008048;28;20444;-82
2023/05/13 03:41:16;;;;;;;6.87;6.27;;;14.00;60.30;;;;;;5051091;28;20450;-83
2023/05/13 03:43:43;;;;;;;7.03;6.33;;;14.00;60.00;;;;;;5009234;28;20450;-83
2023/05/13 03:46:12;;;;;;;6.60;5.90;;;14.10;59.30;;;;;;4999897;28;20869;-83
2023/05/13 03:48:39;;;;;;;9.40;7.30;;;14.00;59.20;;;;;;5030310;28;20457;-82
2023/05/13 03:51:06;;;;;;;8.03;6.77;;;14.00;59.20;;;;;;5016510;28;20456;-83
2023/05/13 03:53:33;;;;;;;7.50;5.77;;;14.10;58.90;;;;;;5032237;28;20587;-83
2023/05/13 03:56:00;;;;;;;8.87;6.97;;;14.20;59.00;;;;;;5033504;28;20449;-82
2023/05/13 03:58:29;;;;;;;8.80;6.10;;;14.20;59.00;;;;;;5007496;28;20488;-83
2023/05/13 04:00:58;;;;;;;8.13;6.03;;;14.20;58.80;;;;;;5018890;28;20485;-83
2023/05/13 04:03:25;;;;;;;7.07;5.77;;;14.20;58.50;;;;;;5022004;28;20724;-83
2023/05/13 04:05:52;;;;;;;7.10;6.40;;;14.20;58.50;;;;;;5051256;28;20449;-83
2023/05/13 04:08:19;;;;;;;9.97;6.23;;;14.20;58.40;;;;;;5032630;28;20528;-83
2023/05/13 04:10:46;;;;;;;36.13;8.40;;;14.20;58.60;;;;;;5026771;28;21063;-83
2023/05/13 04:13:13;;;;;;;9.50;7.27;;;14.20;59.20;;;;;;5032644;28;20473;-83
2023/05/13 04:15:41;;;;;;;14.20;7.37;;;14.10;60.00;;;;;;5018927;28;21060;-82
2023/05/13 04:18:08;;;;;;;27.50;8.10;;;14.20;60.40;;;;;;5049375;28;20448;-81
2023/05/13 04:20:37;;;;;;;59.03;8.33;;;14.20;60.00;;;;;;5023626;28;20498;-83
2023/05/13 04:23:05;;;;;;;38.60;7.50;;;14.30;60.00;;;;;;5015755;28;20529;-80
2023/05/13 04:25:32;;;;;;;20.23;6.17;;;14.30;60.50;;;;;;5015442;28;21081;-83
2023/05/13 04:27:59;;;;;;;50.77;8.70;;;14.30;60.20;;;;;;5009418;28;20820;-83
2023/05/13 04:30:41;;;;;;;28.43;7.30;;;14.30;60.50;;;;;;5017627;28;21113;-83
2023/05/13 04:33:08;;;;;;;46.60;7.63;;;14.30;60.50;;;;;;5042655;28;20480;-83
2023/05/13 04:35:37;;;;;;;33.90;7.93;;;14.30;61.00;;;;;;5024140;28;20456;-83
2023/05/13 04:38:05;;;;;;;27.63;8.03;;;14.30;62.40;;;;;;5014713;28;20461;-83
2023/05/13 04:40:32;;;;;;;105.80;11.77;;;14.20;62.90;;;;;;5018104;28;20569;-83
2023/05/13 04:43:05;;;;;;;42.93;8.90;;;14.20;62.80;;;;;;5011168;28;20441;-83
2023/05/13 04:45:37;;;;;;;91.73;10.67;;;14.30;63.00;;;;;;5016015;28;20453;-83
2023/05/13 04:48:09;;;;;;;38.23;8.80;;;14.30;63.30;;;;;;5032349;28;20476;-83
2023/05/13 04:50:36;;;;;;;234.23;17.53;;;14.30;63.50;;;;;;5033615;28;21483;-82
2023/05/13 04:53:03;;;;;;;99.13;9.77;;;14.40;63.20;;;;;;5021524;28;20462;-82
2023/05/13 04:55:30;;;;;;;240.77;15.47;;;14.30;63.10;;;;;;5015334;28;20464;-82
2023/05/13 04:57:57;;;;;;;50.20;9.00;;;14.00;63.60;;;;;;5018335;28;21421;-83
2023/05/13 05:00:24;;;;;;;69.07;13.80;;;13.90;64.70;;;;;;5012451;28;21284;-82
2023/05/13 05:02:52;;;;;;;53.90;11.03;;;13.80;65.40;;;;;;5005050;28;20446;-81
2023/05/13 05:05:21;;;;;;;31.53;8.00;;;13.80;65.40;;;;;;5017277;28;20453;-82
2023/05/13 05:07:48;;;;;;;41.87;7.87;;;13.80;65.40;;;;;;5020676;28;20541;-82
2023/05/13 05:10:16;;;;;;;45.00;8.23;;;13.70;65.80;;;;;;5012786;28;20873;-82
2023/05/13 05:12:50;;;;;;;139.70;13.10;;;13.80;65.80;;;;;;5016461;28;20477;-82
2023/05/13 05:15:18;;;;;;;186.47;15.27;;;13.50;65.60;;;;;;5031477;28;20461;-82
2023/05/13 05:17:48;;;;;;;10.13;6.10;;;13.50;65.80;;;;;;5030638;28;20452;-84
2023/05/13 05:20:15;;;;;;;26.80;11.03;;;13.40;66.80;;;;;;5022421;28;20484;-82
2023/05/13 05:22:44;;;;;;;39.53;12.43;;;13.80;66.70;;;;;;5014667;28;20524;-82
2023/05/13 05:25:12;;;;;;;62.50;10.30;;;13.80;66.30;;;;;;5034888;28;20444;-81
2023/05/13 05:27:41;;;;;;;19.20;7.93;;;13.90;66.40;;;;;;5023113;28;20465;-82
2023/05/13 05:30:10;;;;;;;48.97;13.50;;;14.10;66.10;;;;;;5009164;28;20585;-82
2023/05/13 05:32:38;;;;;;;83.77;19.90;;;14.10;65.80;;;;;;5003192;28;20527;-82
2023/05/13 05:35:06;;;;;;;35.97;15.10;;;14.10;65.70;;;;;;5017509;28;20468;-82
2023/05/13 05:37:34;;;;;;;32.27;8.77;;;13.90;66.00;;;;;;5011211;28;20683;-82
2023/05/13 05:40:02;;;;;;;19.27;7.50;;;14.00;66.90;;;;;;5039372;28;20477;-82
2023/05/13 05:42:29;;;;;;;43.30;8.57;;;14.20;66.50;;;;;;5010359;28;20441;-82
2023/05/13 05:44:56;;;;;;;92.30;8.93;;;14.30;65.70;;;;;;5032846;28;20536;-82
2023/05/13 05:47:24;;;;;;;16.07;8.30;;;14.20;65.40;;;;;;5012611;28;20446;-82
2023/05/13 05:49:51;;;;;;;17.27;7.20;;;14.10;66.10;;;;;;5000784;28;20839;-82
2023/05/13 05:52:18;;;;;;;24.47;7.27;;;14.10;66.30;;;;;;4996880;28;20453;-82
2023/05/13 05:54:45;;;;;;;61.67;10.87;;;14.30;66.70;;;;;;5030896;28;20458;-82
2023/05/13 05:57:14;;;;;;;26.20;7.53;;;14.60;65.60;;;;;;5015851;28;20480;-82
2023/05/13 05:59:41;;;;;;;18.83;7.73;;;14.60;65.00;;;;;;5027313;28;20485;-82
2023/05/13 06:02:08;;;;;;;8.87;6.40;;;14.40;65.80;;;;;;5033463;28;20452;-82
2023/05/13 06:04:36;;;;;;;14.97;8.80;;;14.70;66.10;;;;;;5012710;28;22154;-83
2023/05/13 06:07:03;;;;;;;10.43;7.57;;;14.70;66.00;;;;;;5016038;28;20459;-82
2023/05/13 06:09:30;;;;;;;16.60;8.20;;;14.80;66.20;;;;;;5011649;28;21050;-81
2023/05/13 06:11:57;;;;;;;9.90;7.10;;;15.00;65.90;;;;;;5015716;28;20477;-83
2023/05/13 06:14:25;;;;;;;9.60;7.50;;;15.10;65.20;;;;;;5020361;28;20469;-83
2023/05/13 06:16:52;;;;;;;7.60;6.90;;;15.00;65.30;;;;;;4998482;28;20620;-83
2023/05/13 06:19:19;;;;;;;6.93;6.20;;;14.90;65.80;;;;;;5028870;28;20471;-82
2023/05/13 06:21:47;;;;;;;6.03;5.43;;;14.90;66.20;;;;;;5030885;28;20448;-83
2023/05/13 06:24:14;;;;;;;7.60;5.67;;;14.90;65.70;;;;;;5012258;28;20441;-82
2023/05/13 06:26:41;;;;;;;7.50;6.70;;;14.80;66.10;;;;;;5029561;28;20449;-82
2023/05/13 06:29:08;;;;;;;6.80;5.40;;;14.70;66.80;;;;;;5004197;28;20917;-82
2023/05/13 06:31:37;;;;;;;8.07;6.20;;;14.80;67.10;;;;;;5013845;28;20449;-83
2023/05/13 06:34:04;;;;;;;10.20;6.37;;;15.00;67.10;;;;;;5037572;28;20564;-82
2023/05/13 06:36:31;;;;;;;8.73;5.83;;;14.90;66.50;;;;;;5010320;28;20474;-83
2023/05/13 06:38:58;;;;;;;7.70;5.90;;;15.00;66.20;;;;;;5028257;28;20487;-84
2023/05/13 06:41:25;;;;;;;6.50;5.60;;;15.20;66.40;;;;;;5012744;28;20804;-83
2023/05/13 06:43:56;;;;;;;13.23;6.53;;;15.50;66.70;;;;;;5012001;28;20457;-82
2023/05/13 06:46:28;;;;;;;10.83;7.13;;;15.70;66.70;;;;;;5018387;28;20539;-83
2023/05/13 06:48:56;;;;;;;8.10;6.00;;;16.00;65.50;;;;;;5021213;28;20532;-82
2023/05/13 06:51:26;;;;;;;10.40;6.77;;;16.20;65.00;;;;;;5012937;28;20939;-83
2023/05/13 06:53:53;;;;;;;7.30;5.97;;;16.20;65.10;;;;;;5045773;28;20500;-83
2023/05/13 06:56:21;;;;;;;6.20;5.43;;;16.20;64.60;;;;;;5019890;28;20449;-84
2023/05/13 06:58:49;;;;;;;6.10;5.40;;;16.30;64.40;;;;;;5013648;28;20480;-83
2023/05/13 07:01:16;;;;;;;9.73;6.53;;;16.30;64.60;;;;;;5000820;28;20441;-83
2023/05/13 07:03:43;;;;;;;6.53;5.67;;;16.30;65.20;;;;;;5014720;28;20443;-83
2023/05/13 07:06:12;;;;;;;8.53;5.50;;;16.50;65.10;;;;;;5001202;28;20459;-83
2023/05/13 07:08:39;;;;;;;9.43;5.30;;;16.70;65.00;;;;;;5012991;28;20445;-83
2023/05/13 07:11:06;;;;;;;5.90;5.30;;;17.20;64.50;;;;;;5018657;28;20812;-83
2023/05/13 07:13:33;;;;;;;7.20;5.80;;;17.30;63.20;;;;;;5038427;28;20477;-83
2023/05/13 07:16:01;;;;;;;6.17;5.60;;;17.50;63.30;;;;;;5025414;28;20448;-83
2023/05/13 07:18:28;;;;;;;6.03;5.43;;;17.50;62.50;;;;;;5021908;28;20441;-84
2023/05/13 07:20:56;;;;;;;4.93;4.47;;;17.60;62.30;;;;;;5032804;28;20524;-83
2023/05/13 07:23:25;;;;;;;5.33;3.63;;;17.80;60.60;;;;;;5023528;28;20474;-82
2023/05/13 07:25:52;;;;;;;5.90;3.70;;;18.00;57.90;;;;;;5031176;28;20453;-84
2023/05/13 07:28:20;;;;;;;4.43;4.03;;;18.10;57.30;;;;;;5032714;28;20458;-83
2023/05/13 07:30:47;;;;;;;4.93;4.43;;;18.00;55.70;;;;;;5022318;28;20484;-83
2023/05/13 07:33:14;;;;;;;4.03;3.63;;;18.10;56.60;;;;;;5034540;28;21065;-82
2023/05/13 07:35:41;;;;;;;4.00;3.50;;;18.30;54.70;;;;;;5003310;28;20560;-82
2023/05/13 07:38:09;;;;;;;4.10;3.67;;;18.40;53.70;;;;;;4999264;28;21001;-82
2023/05/13 07:40:38;;;;;;;3.23;2.97;;;18.40;55.10;;;;;;5017493;28;20461;-84
2023/05/13 07:43:05;;;;;;;4.27;3.40;;;18.50;53.20;;;;;;5018302;28;20544;-83
2023/05/13 07:45:33;;;;;;;4.00;3.60;;;18.50;53.20;;;;;;5005208;28;20441;-82
2023/05/13 07:48:00;;;;;;;4.73;3.40;;;18.50;54.00;;;;;;5019002;28;20459;-84
2023/05/13 07:50:27;;;;;;;5.20;3.83;;;18.50;53.10;;;;;;5005214;28;20891;-83
2023/05/13 07:52:54;;;;;;;3.80;3.40;;;18.50;53.50;;;;;;5030790;28;20449;-83
2023/05/13 07:55:21;;;;;;;3.63;3.33;;;18.60;52.40;;;;;;4998770;28;20465;-83
2023/05/13 07:57:49;;;;;;;3.60;3.30;;;18.80;53.80;;;;;;5014163;28;20492;-83
2023/05/13 08:00:17;;;;;;;3.77;3.03;;;19.00;53.60;;;;;;5032722;28;20993;-83
2023/05/13 08:02:44;;;;;;;3.70;3.50;;;19.10;51.90;;;;;;5032410;28;20862;-83
2023/05/13 08:05:11;;;;;;;6.43;3.20;;;19.30;52.90;;;;;;5016805;28;20437;-82
2023/05/13 08:07:38;;;;;;;3.10;2.80;;;19.50;51.80;;;;;;5027458;28;20452;-83
2023/05/13 08:10:06;;;;;;;3.80;3.50;;;19.60;51.90;;;;;;5016129;28;20488;-83
2023/05/13 08:12:33;;;;;;;3.53;3.23;;;19.80;51.10;;;;;;5030882;28;20445;-82
2023/05/13 08:15:04;;;;;;;3.83;3.03;;;19.90;49.70;;;;;;5015416;28;20539;-83
2023/05/13 08:17:32;;;;;;;2.90;2.70;;;20.10;49.10;;;;;;5031146;28;20970;-83
2023/05/13 08:19:59;;;;;;;4.93;3.10;;;20.00;49.60;;;;;;5049345;28;20457;-84
2023/05/13 08:22:26;;;;;;;3.00;2.80;;;19.80;48.80;;;;;;5016257;28;21037;-84
2023/05/13 08:24:53;;;;;;;3.50;3.20;;;19.90;50.20;;;;;;5017022;28;20456;-83
2023/05/13 08:27:20;;;;;;;2.80;2.60;;;19.90;49.90;;;;;;4999546;28;20448;-83
2023/05/13 08:29:47;;;;;;;3.53;3.23;;;20.00;51.60;;;;;;5012360;28;20499;-83
2023/05/13 08:32:16;;;;;;;3.00;2.80;;;19.90;48.80;;;;;;5017564;28;20442;-83
2023/05/13 08:34:43;;;;;;;3.27;2.97;;;20.00;50.30;;;;;;5016334;28;20476;-84
2023/05/13 08:37:10;;;;;;;3.10;2.90;;;20.00;50.00;;;;;;5009803;28;20454;-83
2023/05/13 08:39:37;;;;;;;4.80;3.13;;;20.00;50.30;;;;;;5041361;28;20475;-83
2023/05/13 08:42:04;;;;;;;4.07;3.40;;;20.10;49.30;;;;;;5034837;28;20816;-83
2023/05/13 08:44:32;;;;;;;5.90;3.33;;;20.20;49.90;;;;;;5015378;28;21453;-82
2023/05/13 08:47:07;;;;;;;3.33;3.03;;;20.50;49.60;;;;;;5050565;28;20448;-83
2023/05/13 08:49:36;;;;;;;3.77;3.33;;;20.80;49.20;;;;;;5033638;28;20472;-83
2023/05/13 08:52:03;;;;;;;3.70;3.40;;;21.20;49.20;;;;;;5018849;28;20813;-83
2023/05/13 08:54:32;;;;;;;3.03;2.83;;;21.30;47.50;;;;;;5016712;28;20476;-84
2023/05/13 08:56:59;;;;;;;5.73;3.70;;;21.50;47.60;;;;;;5018870;28;20452;-84
2023/05/13 08:59:26;;;;;;;3.73;3.33;;;21.70;47.10;;;;;;5023814;28;20856;-86
2023/05/13 09:01:55;;;;;;;4.07;3.10;;;21.80;46.10;;;;;;5050000;28;20802;-84
2023/05/13 09:04:22;;;;;;;2.70;2.50;;;21.70;45.40;;;;;;5017568;28;20506;-84
2023/05/13 09:06:50;;;;;;;3.53;3.23;;;21.50;44.60;;;;;;5015601;28;20965;-84
2023/05/13 09:09:17;;;;;;;3.50;3.10;;;21.40;44.70;;;;;;5018258;28;20465;-83
2023/05/13 09:11:47;;;;;;;3.50;3.20;;;21.70;46.80;;;;;;5025412;28;20457;-82
2023/05/13 09:14:18;;;;;;;4.60;3.40;;;21.90;43.40;;;;;;5049778;28;20481;-84
2023/05/13 09:16:45;;;;;;;3.97;3.60;;;21.50;44.40;;;;;;5022609;28;20548;-84
2023/05/13 09:19:12;;;;;;;4.90;3.30;;;21.50;45.50;;;;;;5033059;28;20520;-83
2023/05/13 09:21:39;;;;;;;3.50;3.20;;;21.40;43.30;;;;;;5015910;28;20473;-83
2023/05/13 09:24:09;;;;;;;6.83;2.80;;;21.50;45.40;;;;;;5025116;28;20459;-83
2023/05/13 09:26:36;;;;;;;5.90;4.03;;;21.40;44.40;;;;;;5038514;28;20468;-84
2023/05/13 09:29:17;;;;;;;3.30;3.00;;;21.00;45.30;;;;;;5015369;28;21002;-83
2023/05/13 09:31:45;;;;;;;4.60;4.20;;;21.20;46.40;;;;;;5001057;28;20449;-83
2023/05/13 09:34:12;;;;;;;3.93;3.50;;;21.40;44.90;;;;;;5019713;28;20468;-84
2023/05/13 09:36:40;;;;;;;4.80;3.13;;;21.80;47.40;;;;;;5048389;28;20455;-83
2023/05/13 09:39:08;;;;;;;4.03;3.40;;;21.80;43.70;;;;;;5032891;28;20477;-82
2023/05/13 09:41:35;;;;;;;3.33;3.00;;;22.00;43.70;;;;;;5015699;28;20835;-82
2023/05/13 09:44:03;;;;;;;6.30;3.07;;;22.30;44.40;;;;;;5016168;28;20518;-83
2023/05/13 09:46:32;;;;;;;5.90;5.13;;;22.30;43.20;;;;;;5023333;28;20484;-83
2023/05/13 09:49:00;;;;;;;3.97;3.57;;;22.40;43.50;;;;;;5030183;28;20461;-83
2023/05/13 09:51:28;;;;;;;3.80;3.20;;;22.50;43.40;;;;;;5024268;28;20436;-83
2023/05/13 09:54:02;;;;;;;2.93;2.73;;;22.60;42.00;;;;;;5034133;28;20558;-84
2023/05/13 09:56:32;;;;;;;3.40;3.10;;;22.50;42.00;;;;;;5048788;28;20528;-83
2023/05/13 09:58:59;;;;;;;4.00;3.60;;;22.50;42.30;;;;;;5050403;28;20444;-83
2023/05/13 10:01:27;;;;;;;3.83;3.50;;;22.40;42.80;;;;;;5031013;28;20445;-83
2023/05/13 10:03:55;;;;;;;6.27;4.00;;;22.30;41.90;;;;;;5005946;28;20825;-83
2023/05/13 10:06:25;;;;;;;6.43;3.30;;;22.50;42.10;;;;;;4998056;28;20507;-83
2023/05/13 10:08:52;;;;;;;3.90;3.50;;;22.60;44.00;;;;;;5032906;28;21008;-83
2023/05/13 10:11:20;;;;;;;3.50;3.20;;;22.60;42.90;;;;;;5047587;28;20445;-83
2023/05/13 10:13:53;;;;;;;6.13;3.10;;;22.80;43.70;;;;;;5014664;28;20462;-82
2023/05/13 10:16:20;;;;;;;3.87;3.57;;;23.10;42.90;;;;;;5023643;28;20494;-82
2023/05/13 10:18:47;;;;;;;4.90;3.20;;;23.30;41.90;;;;;;5025553;28;20464;-82
2023/05/13 10:21:15;;;;;;;4.43;3.40;;;23.10;41.30;;;;;;5015460;28;20809;-83
2023/05/13 10:23:44;;;;;;;3.77;3.33;;;23.10;41.40;;;;;;5014044;28;20457;-84
2023/05/13 10:26:12;;;;;;;4.13;3.70;;;23.10;40.90;;;;;;5014643;28;20438;-83
2023/05/13 10:28:39;;;;;;;3.70;3.40;;;22.70;41.40;;;;;;5013975;28;20453;-83
2023/05/13 10:31:07;;;;;;;4.97;3.87;;;22.70;43.70;;;;;;5022113;28;20451;-81
2023/05/13 10:33:34;;;;;;;3.60;3.30;;;23.10;43.40;;;;;;5020018;28;20449;-82
2023/05/13 10:36:12;;;;;;;8.83;3.63;;;23.30;42.10;;;;;;5019873;28;20484;-83
2023/05/13 10:38:56;;;;;;;4.30;3.33;;;23.40;41.90;;;;;;5026717;28;20461;-82
2023/05/13 10:41:39;;;;;;;4.10;3.80;;;23.60;41.00;;;;;;5022485;28;20457;-83
2023/05/13 10:44:06;;;;;;;3.53;3.13;;;24.00;41.60;;;;;;5020088;28;20865;-83
2023/05/13 10:46:38;;;;;;;4.83;3.37;;;24.20;41.50;;;;;;5008777;28;20457;-83
2023/05/13 10:49:05;;;;;;;4.47;3.30;;;24.10;41.20;;;;;;5035993;28;20470;-83
2023/05/13 10:51:32;;;;;;;5.17;3.40;;;24.20;40.20;;;;;;5017209;28;20548;-82
2023/05/13 10:53:59;;;;;;;5.60;3.47;;;24.20;40.10;;;;;;5011610;28;20456;-83
2023/05/13 10:56:28;;;;;;;3.70;3.40;;;24.20;38.40;;;;;;5044171;28;20829;-82
2023/05/13 10:59:00;;;;;;;3.93;3.53;;;23.90;39.20;;;;;;5004728;28;20460;-83
2023/05/13 11:01:28;;;;;;;3.43;3.07;;;23.90;40.20;;;;;;5005174;28;20453;-83
2023/05/13 11:03:58;;;;;;;6.63;3.97;;;24.00;39.40;;;;;;5039889;28;20456;-83
2023/05/13 11:06:31;;;;;;;4.33;3.93;;;23.70;40.70;;;;;;5009685;28;20912;-82
2023/05/13 11:08:58;;;;;;;4.50;4.10;;;23.80;40.00;;;;;;5035907;28;20459;-82
2023/05/13 11:11:29;;;;;;;7.93;5.00;;;24.00;40.00;;;;;;5043554;28;20881;-82
2023/05/13 11:14:08;;;;;;;7.57;4.87;;;24.20;37.90;;;;;;5035909;28;20445;-83
2023/05/13 11:16:36;;;;;;;5.70;4.53;;;24.10;39.10;;;;;;5034352;28;20456;-83
2023/05/13 11:19:08;;;;;;;9.83;5.80;;;24.10;38.60;;;;;;5020287;28;20551;-83
2023/05/13 11:21:38;;;;;;;6.10;3.67;;;24.20;38.60;;;;;;5048750;28;20446;-82
2023/05/13 11:24:06;;;;;;;5.77;3.83;;;24.00;38.00;;;;;;5000800;28;20465;-83
2023/05/13 11:26:47;;;;;;;5.50;4.47;;;23.80;39.10;;;;;;5014469;28;20452;-83
2023/05/13 11:29:15;;;;;;;4.53;4.03;;;23.80;38.70;;;;;;5031074;28;20866;-83
2023/05/13 11:31:45;;;;;;;9.83;5.07;;;23.80;38.90;;;;;;5049556;28;20472;-83
2023/05/13 11:34:15;;;;;;;5.43;4.23;;;23.70;40.10;;;;;;5023080;28;20563;-81
2023/05/13 11:36:44;;;;;;;3.70;3.40;;;24.00;39.60;;;;;;5032737;28;20449;-83
2023/05/13 11:39:14;;;;;;;6.13;4.30;;;24.00;38.10;;;;;;5042694;28;20886;-83
2023/05/13 11:41:44;;;;;;;5.23;4.70;;;24.00;39.50;;;;;;5024246;28;20449;-83
2023/05/13 11:44:15;;;;;;;5.33;4.83;;;24.10;38.70;;;;;;5034885;28;20837;-83
2023/05/13 11:46:54;;;;;;;3.80;3.50;;;24.10;38.30;;;;;;5007877;28;20453;-83
2023/05/13 11:49:37;;;;;;;3.67;2.93;;;24.20;38.50;;;;;;5007918;28;20564;-83
2023/05/13 11:52:06;;;;;;;3.50;3.20;;;24.50;38.50;;;;;;5026427;28;20449;-82
2023/05/13 11:54:41;;;;;;;5.40;4.17;;;24.50;37.00;;;;;;5030204;28;20472;-83
2023/05/13 11:57:21;;;;;;;4.60;3.70;;;24.50;37.00;;;;;;5005754;28;20453;-82
2023/05/13 11:59:53;;;;;;;6.03;3.07;;;24.20;37.50;;;;;;5021900;28;20476;-83
2023/05/13 12:02:21;;;;;;;4.60;3.93;;;24.10;37.80;;;;;;5019061;28;20484;-83
2023/05/13 12:04:51;;;;;;;3.33;2.97;;;24.30;38.60;;;;;;5005713;28;20450;-82
2023/05/13 12:07:21;;;;;;;3.17;2.87;;;24.40;37.80;;;;;;5010032;28;20876;-82
2023/05/13 12:09:48;;;;;;;3.40;3.10;;;24.50;36.50;;;;;;5023511;28;20468;-82
2023/05/13 12:12:16;;;;;;;3.13;2.90;;;24.50;37.40;;;;;;5019355;28;20451;-82
2023/05/13 12:14:45;;;;;;;4.77;4.23;;;24.30;37.30;;;;;;5014104;28;20560;-83
2023/05/13 12:17:12;;;;;;;4.90;3.90;;;24.30;36.70;;;;;;5033332;28;21034;-82
2023/05/13 12:19:39;;;;;;;3.50;3.10;;;23.90;38.80;;;;;;5000235;28;20465;-82
2023/05/13 12:22:08;;;;;;;3.10;2.90;;;24.00;38.90;;;;;;5017770;28;20456;-82
2023/05/13 12:24:35;;;;;;;7.73;3.10;;;24.30;38.40;;;;;;5032036;28;20843;-83
2023/05/13 12:27:06;;;;;;;3.73;2.77;;;24.20;38.40;;;;;;5017083;28;20446;-83
2023/05/13 12:29:41;;;;;;;5.60;3.20;;;24.40;37.10;;;;;;5004136;28;20821;-82
2023/05/13 12:32:10;;;;;;;2.93;2.73;;;23.80;38.10;;;;;;5019410;28;20465;-83
2023/05/13 12:34:37;;;;;;;4.10;3.20;;;23.90;38.20;;;;;;5039895;28;20478;-83
2023/05/13 12:37:15;;;;;;;5.47;3.53;;;24.00;40.00;;;;;;5018899;28;20457;-82
2023/05/13 12:39:43;;;;;;;3.33;3.03;;;23.90;39.30;;;;;;5018369;28;20910;-82
2023/05/13 12:42:14;;;;;;;3.63;3.30;;;23.80;38.40;;;;;;5031590;28;20447;-82
2023/05/13 12:44:42;;;;;;;7.60;3.03;;;23.80;39.70;;;;;;5008691;28;20469;-82
2023/05/13 12:47:10;;;;;;;3.90;3.30;;;23.80;39.00;;;;;;5008845;28;21102;-82
2023/05/13 12:49:51;;;;;;;2.87;2.67;;;24.00;40.30;;;;;;5025981;28;20484;-83